createdAt,value
2022-07-25T00:01:11.910Z,22.10
2022-07-25T00:03:39.143Z,22.00
2022-07-25T00:06:06.899Z,21.90
2022-07-25T00:08:40.065Z,22.00
2022-07-25T00:11:06.852Z,21.90
2022-07-25T00:13:34.034Z,21.80
2022-07-25T00:16:00.740Z,21.80
2022-07-25T00:18:27.422Z,21.80
2022-07-25T00:20:54.072Z,21.70
2022-07-25T00:23:20.675Z,21.70
2022-07-25T00:25:47.300Z,21.60
2022-07-25T00:28:13.964Z,21.60
2022-07-25T00:30:40.957Z,21.60
2022-07-25T00:33:07.534Z,21.50
2022-07-25T00:35:34.198Z,21.40
2022-07-25T00:38:01.056Z,21.40
2022-07-25T00:40:27.858Z,21.40
2022-07-25T00:42:54.510Z,21.30
2022-07-25T00:45:21.104Z,21.30
2022-07-25T00:47:47.742Z,21.30
2022-07-25T00:50:14.412Z,21.20
2022-07-25T00:52:41.178Z,21.20
2022-07-25T00:55:08.488Z,21.10
2022-07-25T00:57:35.179Z,21.00
2022-07-25T01:00:02.253Z,21.00
2022-07-25T01:02:28.944Z,21.00
2022-07-25T01:04:56.989Z,20.90
2022-07-25T01:07:23.781Z,20.90
2022-07-25T01:09:51.167Z,20.90
2022-07-25T01:12:17.941Z,20.90
2022-07-25T01:14:44.548Z,20.90
2022-07-25T01:17:13.216Z,20.90
2022-07-25T01:19:39.838Z,20.90
2022-07-25T01:22:06.618Z,20.90
2022-07-25T01:24:35.225Z,20.90
2022-07-25T01:27:02.800Z,20.80
2022-07-25T01:29:29.405Z,20.80
2022-07-25T01:31:56.080Z,20.80
2022-07-25T01:34:22.895Z,20.80
2022-07-25T01:36:49.547Z,20.80
2022-07-25T01:39:16.302Z,20.80
2022-07-25T01:41:42.889Z,20.80
2022-07-25T01:44:09.958Z,20.70
2022-07-25T01:46:36.955Z,20.70
2022-07-25T01:49:04.381Z,20.80
2022-07-25T01:51:31.123Z,20.70
2022-07-25T01:53:57.714Z,20.70
2022-07-25T01:56:24.326Z,20.70
2022-07-25T01:58:50.931Z,20.70
2022-07-25T02:01:17.719Z,20.70
2022-07-25T02:03:48.228Z,20.70
2022-07-25T02:06:14.861Z,20.70
2022-07-25T02:08:41.467Z,20.70
2022-07-25T02:11:08.098Z,20.70
2022-07-25T02:13:34.815Z,20.70
2022-07-25T02:16:01.463Z,20.70
2022-07-25T02:18:28.078Z,20.60
2022-07-25T02:20:54.711Z,20.60
2022-07-25T02:23:21.294Z,20.60
2022-07-25T02:25:47.879Z,20.60
2022-07-25T02:28:14.517Z,20.60
2022-07-25T02:30:41.202Z,20.60
2022-07-25T02:33:08.092Z,20.60
2022-07-25T02:35:34.990Z,20.60
2022-07-25T02:38:02.059Z,20.50
2022-07-25T02:40:28.769Z,20.50
2022-07-25T02:42:55.460Z,20.50
2022-07-25T02:45:22.071Z,20.50
2022-07-25T02:47:48.788Z,20.40
2022-07-25T02:50:15.590Z,20.40
2022-07-25T02:52:43.174Z,20.40
2022-07-25T02:55:10.992Z,20.40
2022-07-25T02:57:37.632Z,20.40
2022-07-25T03:00:05.880Z,20.40
2022-07-25T03:02:32.461Z,20.40
2022-07-25T03:04:59.074Z,20.40
2022-07-25T03:07:25.710Z,20.40
2022-07-25T03:09:52.335Z,20.40
2022-07-25T03:12:19.053Z,20.40
2022-07-25T03:14:45.660Z,20.40
2022-07-25T03:17:12.333Z,20.40
2022-07-25T03:19:38.988Z,20.30
2022-07-25T03:22:05.653Z,20.30
2022-07-25T03:24:32.301Z,20.30
2022-07-25T03:26:58.953Z,20.30
2022-07-25T03:29:25.531Z,20.30
2022-07-25T03:31:52.172Z,20.20
2022-07-25T03:34:18.874Z,20.20
2022-07-25T03:36:45.527Z,20.20
2022-07-25T03:39:12.274Z,20.20
2022-07-25T03:41:38.882Z,20.30
2022-07-25T03:44:05.884Z,20.20
2022-07-25T03:46:32.731Z,20.30
2022-07-25T03:48:59.437Z,20.30
2022-07-25T03:51:26.137Z,20.30
2022-07-25T03:54:01.842Z,20.30
2022-07-25T03:56:49.025Z,20.30
2022-07-25T03:59:17.935Z,20.40
2022-07-25T04:01:46.224Z,20.40
2022-07-25T04:04:13.282Z,20.40
2022-07-25T04:06:40.800Z,20.40
2022-07-25T04:09:08.999Z,20.40
2022-07-25T04:11:36.030Z,20.40
2022-07-25T04:14:02.917Z,20.40
2022-07-25T04:16:29.794Z,20.50
2022-07-25T04:18:57.238Z,20.50
2022-07-25T04:21:24.891Z,20.50
2022-07-25T04:23:51.619Z,20.60
2022-07-25T04:26:18.673Z,20.60
2022-07-25T04:28:45.466Z,20.60
2022-07-25T04:31:12.186Z,20.60
2022-07-25T04:33:40.059Z,20.70
2022-07-25T04:36:08.320Z,20.60
2022-07-25T04:38:34.978Z,20.60
2022-07-25T04:41:01.764Z,20.70
2022-07-25T04:43:28.765Z,20.70
2022-07-25T04:45:55.586Z,20.70
2022-07-25T04:48:22.189Z,20.70
2022-07-25T04:50:49.223Z,20.80
2022-07-25T04:53:15.829Z,20.80
2022-07-25T04:55:42.438Z,20.90
2022-07-25T04:58:09.058Z,20.90
2022-07-25T05:00:35.736Z,21.00
2022-07-25T05:03:02.426Z,21.00
2022-07-25T05:05:29.098Z,21.00
2022-07-25T05:07:58.625Z,21.10
2022-07-25T05:10:26.705Z,21.10
2022-07-25T05:12:53.701Z,21.20
2022-07-25T05:15:20.612Z,21.20
2022-07-25T05:17:47.370Z,21.20
2022-07-25T05:20:15.056Z,21.30
2022-07-25T05:22:42.480Z,21.40
2022-07-25T05:25:10.998Z,21.50
2022-07-25T05:27:38.374Z,21.60
2022-07-25T05:30:07.077Z,21.70
2022-07-25T05:32:33.775Z,21.80
2022-07-25T05:35:00.670Z,21.90
2022-07-25T05:37:27.254Z,21.90
2022-07-25T05:39:53.845Z,22.00
2022-07-25T05:42:20.460Z,22.10
2022-07-25T05:44:47.070Z,22.30
2022-07-25T05:47:14.045Z,22.30
2022-07-25T05:49:40.633Z,22.30
2022-07-25T05:52:12.483Z,22.40
2022-07-25T05:54:39.714Z,22.50
2022-07-25T05:57:06.296Z,22.60
2022-07-25T05:59:32.865Z,22.70
2022-07-25T06:02:01.652Z,22.70
2022-07-25T06:04:28.440Z,22.80
2022-07-25T06:06:55.079Z,22.90
2022-07-25T06:09:23.882Z,23.00
2022-07-25T06:11:59.988Z,23.30
2022-07-25T06:14:28.422Z,23.60
2022-07-25T06:16:55.457Z,23.70
2022-07-25T06:19:22.203Z,23.80
2022-07-25T06:21:49.227Z,23.70
2022-07-25T06:24:15.810Z,23.70
2022-07-25T06:26:42.721Z,23.70
2022-07-25T06:29:09.364Z,23.90
2022-07-25T06:31:36.027Z,24.00
2022-07-25T06:34:02.937Z,24.30
2022-07-25T06:36:32.659Z,24.60
2022-07-25T06:38:59.932Z,24.80
2022-07-25T06:41:26.768Z,24.80
2022-07-25T06:43:53.375Z,24.80
2022-07-25T06:46:20.335Z,24.80
2022-07-25T06:48:47.222Z,25.10
2022-07-25T06:51:14.046Z,25.20
2022-07-25T06:53:40.834Z,25.30
2022-07-25T06:56:07.702Z,25.30
2022-07-25T06:58:34.349Z,25.30
2022-07-25T07:01:01.366Z,25.30
2022-07-25T07:03:28.302Z,25.30
2022-07-25T07:05:55.448Z,25.30
2022-07-25T07:08:22.171Z,25.20
2022-07-25T07:10:48.835Z,25.10
2022-07-25T07:13:23.898Z,25.50
2022-07-25T07:15:51.415Z,26.30
2022-07-25T07:18:19.582Z,26.90
2022-07-25T07:20:47.460Z,27.10
2022-07-25T07:23:16.944Z,27.60
2022-07-25T07:25:46.755Z,28.40
2022-07-25T07:28:13.770Z,29.40
2022-07-25T07:33:27.175Z,31.10
2022-07-25T07:35:55.860Z,32.20
2022-07-25T07:38:24.256Z,33.50
2022-07-25T07:40:50.931Z,34.30
2022-07-25T07:43:17.587Z,34.50
2022-07-25T07:45:44.659Z,34.40
2022-07-25T07:48:11.383Z,34.40
2022-07-25T07:50:38.274Z,34.50
2022-07-25T07:53:05.164Z,35.10
2022-07-25T07:55:55.396Z,35.80
2022-07-25T07:58:22.265Z,36.60
2022-07-25T08:00:51.463Z,37.50
2022-07-25T08:03:20.714Z,38.20
2022-07-25T08:05:49.065Z,38.90
2022-07-25T08:08:16.226Z,39.00
2022-07-25T08:10:45.645Z,39.00
2022-07-25T08:13:17.494Z,39.20
2022-07-25T08:15:46.101Z,39.50
2022-07-25T08:18:17.925Z,39.50
2022-07-25T08:20:45.900Z,39.40
2022-07-25T08:23:12.775Z,39.60
2022-07-25T08:25:39.850Z,39.90
2022-07-25T08:28:07.088Z,40.40
2022-07-25T08:30:35.331Z,40.90
2022-07-25T08:33:06.063Z,41.60
2022-07-25T08:35:34.445Z,41.60
2022-07-25T08:38:03.108Z,41.40
2022-07-25T08:40:31.147Z,41.60
2022-07-25T08:43:01.078Z,41.70
2022-07-25T08:45:28.544Z,42.00
2022-07-25T08:47:55.981Z,42.40
2022-07-25T08:50:28.341Z,42.90
2022-07-25T08:53:10.387Z,43.30
2022-07-25T08:55:45.003Z,42.40
2022-07-25T08:58:16.131Z,40.80
2022-07-25T09:00:43.611Z,39.10
2022-07-25T09:03:11.179Z,37.50
2022-07-25T09:05:38.545Z,36.10
2022-07-25T09:08:17.510Z,34.90
2022-07-25T09:10:52.100Z,34.50
2022-07-25T09:13:21.214Z,35.20
2022-07-25T09:15:49.645Z,36.30
2022-07-25T09:18:21.901Z,36.80
2022-07-25T09:20:50.949Z,36.80
2022-07-25T09:23:30.901Z,36.30
2022-07-25T09:26:14.565Z,35.40
2022-07-25T09:28:43.917Z,34.60
2022-07-25T09:31:11.564Z,34.20
2022-07-25T09:33:45.889Z,33.90
2022-07-25T09:36:13.351Z,33.80
2022-07-25T09:38:40.013Z,34.00
2022-07-25T09:41:07.599Z,34.70
2022-07-25T09:43:44.561Z,35.30
2022-07-25T09:46:12.483Z,35.50
2022-07-25T09:48:40.758Z,35.20
2022-07-25T09:51:07.831Z,34.90
2022-07-25T09:53:34.755Z,34.40
2022-07-25T09:56:01.749Z,34.00
2022-07-25T09:58:29.369Z,33.80
2022-07-25T10:01:02.781Z,33.50
2022-07-25T10:03:50.282Z,33.40
2022-07-25T10:06:20.573Z,33.20
2022-07-25T10:08:48.509Z,32.90
2022-07-25T10:11:23.859Z,32.60
2022-07-25T10:13:50.707Z,32.30
2022-07-25T10:16:20.661Z,32.10
2022-07-25T10:18:56.752Z,32.20
2022-07-25T10:21:27.396Z,32.70
2022-07-25T10:24:04.131Z,33.40
2022-07-25T10:26:32.603Z,34.20
2022-07-25T10:29:01.560Z,34.80
2022-07-25T10:31:39.505Z,35.10
2022-07-25T10:34:08.814Z,35.30
2022-07-25T10:36:45.206Z,35.10
2022-07-25T10:39:13.793Z,35.00
2022-07-25T10:41:42.542Z,35.50
2022-07-25T10:44:15.230Z,36.40
2022-07-25T10:46:44.897Z,36.50
2022-07-25T10:49:19.613Z,35.80
2022-07-25T10:51:59.755Z,35.00
2022-07-25T10:54:26.452Z,34.30
2022-07-25T10:56:58.144Z,33.60
2022-07-25T10:59:35.385Z,33.40
2022-07-25T11:02:08.234Z,33.80
2022-07-25T11:04:36.355Z,34.50
2022-07-25T11:07:11.227Z,35.50
2022-07-25T11:09:38.877Z,36.10
2022-07-25T11:12:06.185Z,36.00
2022-07-25T11:14:41.222Z,35.60
2022-07-25T11:17:13.024Z,34.90
2022-07-25T11:19:39.714Z,34.20
2022-07-25T11:22:06.519Z,33.60
2022-07-25T11:24:40.306Z,33.10
2022-07-25T11:27:12.475Z,33.00
2022-07-25T11:29:40.107Z,32.90
2022-07-25T11:32:09.802Z,32.70
2022-07-25T11:34:55.537Z,32.60
2022-07-25T11:37:22.307Z,32.30
2022-07-25T11:39:49.343Z,32.20
2022-07-25T11:42:18.629Z,32.40
2022-07-25T11:44:48.642Z,33.10
2022-07-25T11:47:30.981Z,33.60
2022-07-25T11:50:01.124Z,33.80
2022-07-25T11:52:30.127Z,33.60
2022-07-25T11:55:06.215Z,33.40
2022-07-25T11:57:35.784Z,33.20
2022-07-25T12:00:23.937Z,32.90
2022-07-25T12:02:51.123Z,32.90
2022-07-25T12:05:20.758Z,33.00
2022-07-25T12:07:50.218Z,33.00
2022-07-25T12:10:24.504Z,32.70
2022-07-25T12:12:56.073Z,32.50
2022-07-25T12:15:26.749Z,32.30
2022-07-25T12:17:55.999Z,32.20
2022-07-25T12:20:25.230Z,32.10
2022-07-25T12:22:54.927Z,32.30
2022-07-25T12:25:21.778Z,32.50
2022-07-25T12:27:49.278Z,32.70
2022-07-25T12:30:16.380Z,32.90
2022-07-25T12:32:43.560Z,33.10
2022-07-25T12:35:12.939Z,33.10
2022-07-25T12:37:41.271Z,33.00
2022-07-25T12:40:10.809Z,33.00
2022-07-25T12:42:37.467Z,32.80
2022-07-25T12:45:05.007Z,32.60
2022-07-25T12:47:31.662Z,32.20
2022-07-25T12:49:58.262Z,31.80
2022-07-25T12:52:24.884Z,31.40
2022-07-25T12:54:51.545Z,30.70
2022-07-25T12:57:18.218Z,30.10
2022-07-25T12:59:44.918Z,29.60
2022-07-25T13:02:11.567Z,29.10
2022-07-25T13:04:38.726Z,28.60
2022-07-25T13:07:05.574Z,28.00
2022-07-25T13:09:32.355Z,27.50
2022-07-25T13:11:59.315Z,27.20
2022-07-25T13:14:26.102Z,26.90
2022-07-25T13:16:52.964Z,26.70
2022-07-25T13:19:19.661Z,26.50
2022-07-25T13:21:46.262Z,26.30
2022-07-25T13:24:12.957Z,26.10
2022-07-25T13:26:40.087Z,26.00
2022-07-25T13:29:09.520Z,25.70
2022-07-25T13:31:41.036Z,25.60
2022-07-25T13:34:08.687Z,25.30
2022-07-25T13:36:36.926Z,25.20
2022-07-25T13:39:05.388Z,25.00
2022-07-25T13:41:32.740Z,25.00
2022-07-25T13:44:00.268Z,24.90
2022-07-25T13:46:26.911Z,24.80
2022-07-25T13:48:55.502Z,24.90
2022-07-25T13:51:22.142Z,24.90
2022-07-25T13:53:49.519Z,25.10
2022-07-25T13:56:16.216Z,25.40
2022-07-25T13:58:43.095Z,25.70
2022-07-25T14:01:11.481Z,25.90
2022-07-25T14:03:38.441Z,26.10
2022-07-25T14:06:05.852Z,26.10
2022-07-25T14:08:32.741Z,26.20
2022-07-25T14:10:59.554Z,26.20
2022-07-25T14:13:26.235Z,26.30
2022-07-25T14:15:53.000Z,26.30
2022-07-25T14:18:19.647Z,26.30
2022-07-25T14:20:46.484Z,26.10
2022-07-25T14:23:13.444Z,26.00
2022-07-25T14:25:40.078Z,25.80
2022-07-25T14:28:06.774Z,25.70
2022-07-25T14:30:33.735Z,25.60
2022-07-25T14:33:00.562Z,25.60
2022-07-25T14:35:32.133Z,25.50
2022-07-25T14:37:59.310Z,25.50
2022-07-25T14:40:26.262Z,25.40
2022-07-25T14:42:53.067Z,25.40
2022-07-25T14:45:21.863Z,25.40
2022-07-25T14:47:48.501Z,25.40
2022-07-25T14:50:15.391Z,25.50
2022-07-25T14:52:42.060Z,25.60
2022-07-25T14:55:09.400Z,25.70
2022-07-25T14:57:36.073Z,25.70
2022-07-25T15:00:05.002Z,25.60
2022-07-25T15:02:32.254Z,25.50
2022-07-25T15:04:58.885Z,25.40
2022-07-25T15:07:25.583Z,25.30
2022-07-25T15:09:52.231Z,25.20
2022-07-25T15:12:20.669Z,25.00
2022-07-25T15:14:47.412Z,25.00
2022-07-25T15:17:14.030Z,24.90
2022-07-25T15:19:40.601Z,24.90
2022-07-25T15:22:07.405Z,24.90
2022-07-25T15:24:44.446Z,25.00
2022-07-25T15:27:20.638Z,25.00
2022-07-25T15:29:47.231Z,25.00
2022-07-25T15:32:13.814Z,25.00
2022-07-25T15:34:40.440Z,25.00
2022-07-25T15:37:07.151Z,24.90
2022-07-25T15:39:33.736Z,25.00
2022-07-25T15:42:01.169Z,25.10
2022-07-25T15:44:27.769Z,25.10
2022-07-25T15:46:54.436Z,25.10
2022-07-25T15:49:21.534Z,25.20
2022-07-25T15:51:48.194Z,25.20
2022-07-25T15:54:14.805Z,25.20
2022-07-25T15:56:41.666Z,25.10
2022-07-25T15:59:08.616Z,25.10
2022-07-25T16:01:35.660Z,25.00
2022-07-25T16:04:02.462Z,24.80
2022-07-25T16:06:29.409Z,24.80
2022-07-25T16:08:56.075Z,24.70
2022-07-25T16:11:22.682Z,24.60
2022-07-25T16:13:49.319Z,24.40
2022-07-25T16:16:16.144Z,24.30
2022-07-25T16:18:43.169Z,24.10
2022-07-25T16:21:09.821Z,23.90
2022-07-25T16:23:41.519Z,23.80
2022-07-25T16:26:12.427Z,23.60
2022-07-25T16:28:40.449Z,23.60
2022-07-25T16:31:07.393Z,23.40
2022-07-25T16:33:34.317Z,23.30
2022-07-25T16:36:01.074Z,23.30
2022-07-25T16:38:28.800Z,23.30
2022-07-25T16:40:55.436Z,23.50
2022-07-25T16:43:23.005Z,23.60
2022-07-25T16:45:49.665Z,23.80
2022-07-25T16:48:16.278Z,23.90
2022-07-25T16:50:42.947Z,24.00
2022-07-25T16:53:09.673Z,23.90
2022-07-25T16:55:36.318Z,23.90
2022-07-25T16:58:02.951Z,23.80
2022-07-25T17:00:29.966Z,23.70
2022-07-25T17:02:56.689Z,23.70
2022-07-25T17:05:23.504Z,23.70
2022-07-25T17:07:57.058Z,23.60
2022-07-25T17:10:25.376Z,23.60
2022-07-25T17:12:51.983Z,23.70
2022-07-25T17:15:18.582Z,23.70
2022-07-25T17:17:45.233Z,23.60
2022-07-25T17:20:12.199Z,23.70
2022-07-25T17:22:38.876Z,23.80
2022-07-25T17:25:06.285Z,24.00
2022-07-25T17:27:32.993Z,24.10
2022-07-25T17:29:59.619Z,24.10
2022-07-25T17:32:29.653Z,24.20
2022-07-25T17:34:56.710Z,24.30
2022-07-25T17:37:24.243Z,24.20
2022-07-25T17:39:50.880Z,24.20
2022-07-25T17:42:22.053Z,24.20
2022-07-25T17:44:52.564Z,24.20
2022-07-25T17:47:19.578Z,24.20
2022-07-25T17:49:46.198Z,24.30
2022-07-25T17:52:12.878Z,24.40
2022-07-25T17:54:40.046Z,24.40
2022-07-25T17:57:06.861Z,24.40
2022-07-25T17:59:34.221Z,24.30
2022-07-25T18:02:02.404Z,24.20
2022-07-25T18:04:29.111Z,24.10
2022-07-25T18:06:55.780Z,23.90
2022-07-25T18:09:24.039Z,23.80
2022-07-25T18:11:51.103Z,23.70
2022-07-25T18:14:17.760Z,23.50
2022-07-25T18:16:45.370Z,23.40
2022-07-25T18:19:12.403Z,23.20
2022-07-25T18:21:39.065Z,23.10
2022-07-25T18:24:06.355Z,23.00
2022-07-25T18:26:34.354Z,22.90
2022-07-25T18:29:00.948Z,22.80
2022-07-25T18:31:27.848Z,22.70
2022-07-25T18:33:54.569Z,22.60
2022-07-25T18:36:21.307Z,22.50
2022-07-25T18:38:48.702Z,22.30
2022-07-25T18:41:31.014Z,22.20
2022-07-25T18:43:57.971Z,22.20
2022-07-25T18:46:25.515Z,22.00
2022-07-25T18:48:52.581Z,21.90
2022-07-25T18:51:20.522Z,21.80
2022-07-25T18:53:48.651Z,21.70
2022-07-25T18:56:16.347Z,21.60
2022-07-25T18:58:43.474Z,21.40
2022-07-25T19:01:10.506Z,21.40
2022-07-25T19:03:37.633Z,21.30
2022-07-25T19:06:05.435Z,21.20
2022-07-25T19:08:32.545Z,21.10
2022-07-25T19:10:59.214Z,21.00
2022-07-25T19:13:48.181Z,20.90
2022-07-25T19:16:12.769Z,20.80
2022-07-25T19:18:40.168Z,20.70
2022-07-25T19:21:07.065Z,20.60
2022-07-25T19:23:33.898Z,20.50
2022-07-25T19:26:01.972Z,20.40
2022-07-25T19:28:29.197Z,20.50
2022-07-25T19:30:56.854Z,20.30
2022-07-25T19:33:24.242Z,20.40
2022-07-25T19:35:51.066Z,20.30
2022-07-25T19:38:19.403Z,20.30
2022-07-25T19:40:46.147Z,20.20
2022-07-25T19:43:12.956Z,20.20
2022-07-25T19:45:39.764Z,20.10
2022-07-25T19:48:06.928Z,20.20
2022-07-25T19:50:34.238Z,20.20
2022-07-25T19:53:01.399Z,20.20
2022-07-25T19:55:28.412Z,20.20
2022-07-25T19:57:55.040Z,20.30
2022-07-25T20:00:21.860Z,20.30
2022-07-25T20:02:48.530Z,20.20
2022-07-25T20:05:15.263Z,20.20
2022-07-25T20:07:41.924Z,20.20
2022-07-25T20:10:09.104Z,20.20
2022-07-25T20:12:36.156Z,20.20
2022-07-25T20:15:03.251Z,20.20
2022-07-25T20:17:29.899Z,20.20
2022-07-25T20:19:56.527Z,20.20
2022-07-25T20:22:23.323Z,20.20
2022-07-25T20:24:49.960Z,20.20
2022-07-25T20:27:16.670Z,20.10
2022-07-25T20:29:43.355Z,20.10
2022-07-25T20:32:09.941Z,20.10
2022-07-25T20:34:36.579Z,20.10
2022-07-25T20:37:03.313Z,20.10
2022-07-25T20:39:29.915Z,20.10
2022-07-25T20:41:56.754Z,20.10
2022-07-25T20:44:23.583Z,20.10
2022-07-25T20:46:51.445Z,20.00
2022-07-25T20:49:18.117Z,20.00
2022-07-25T20:51:44.869Z,20.00
2022-07-25T20:54:11.585Z,20.00
2022-07-25T20:56:38.378Z,20.00
2022-07-25T20:59:05.434Z,19.90
2022-07-25T21:01:32.467Z,20.00
2022-07-25T21:03:59.146Z,19.90
2022-07-25T21:06:27.131Z,19.90
2022-07-25T21:08:54.213Z,19.90
2022-07-25T21:11:21.097Z,19.80
2022-07-25T21:13:48.184Z,19.80
2022-07-25T21:16:14.887Z,19.80
2022-07-25T21:18:41.675Z,19.80
2022-07-25T21:21:12.124Z,19.70
2022-07-25T21:23:39.191Z,19.70
2022-07-25T21:26:05.888Z,19.70
2022-07-25T21:28:33.698Z,19.70
2022-07-25T21:31:00.596Z,19.70
2022-07-25T21:33:27.302Z,19.70
2022-07-25T21:35:54.088Z,19.70
2022-07-25T21:38:26.653Z,19.70
2022-07-25T21:40:55.733Z,19.70
2022-07-25T21:43:22.551Z,19.60
2022-07-25T21:45:49.762Z,19.60
2022-07-25T21:48:16.415Z,19.60
2022-07-25T21:50:48.746Z,19.60
2022-07-25T21:53:17.206Z,19.60
2022-07-25T21:55:43.868Z,19.60
2022-07-25T21:58:10.524Z,19.60
2022-07-25T22:00:43.996Z,19.60
2022-07-25T22:03:12.289Z,19.60
2022-07-25T22:05:39.430Z,19.60
2022-07-25T22:08:06.132Z,19.60
2022-07-25T22:10:33.476Z,19.60
2022-07-25T22:13:00.314Z,19.60
2022-07-25T22:15:27.395Z,19.60
2022-07-25T22:17:54.344Z,19.60
2022-07-25T22:20:21.072Z,19.50
2022-07-25T22:22:48.601Z,19.50
2022-07-25T22:25:16.382Z,19.50
2022-07-25T22:27:43.766Z,19.50
2022-07-25T22:30:14.857Z,19.50
2022-07-25T22:32:46.013Z,19.40
2022-07-25T22:35:12.620Z,19.40
2022-07-25T22:37:39.265Z,19.30
2022-07-25T22:40:06.414Z,19.30
2022-07-25T22:42:33.058Z,19.20
2022-07-25T22:44:59.721Z,19.30
2022-07-25T22:47:26.365Z,19.20
2022-07-25T22:49:52.960Z,19.20
2022-07-25T22:52:19.561Z,19.20
2022-07-25T22:54:46.348Z,19.20
2022-07-25T22:57:13.065Z,19.20
2022-07-25T22:59:39.658Z,19.20
2022-07-25T23:02:06.293Z,19.20
2022-07-25T23:04:33.129Z,19.10
2022-07-25T23:06:59.753Z,19.10
2022-07-25T23:09:34.802Z,19.10
2022-07-25T23:12:04.733Z,19.00
2022-07-25T23:14:31.395Z,19.00
2022-07-25T23:17:16.730Z,19.00
2022-07-25T23:19:44.510Z,18.90
2022-07-25T23:22:11.429Z,18.80
2022-07-25T23:24:38.302Z,18.80
2022-07-25T23:27:05.185Z,18.70
2022-07-25T23:29:31.973Z,18.70
2022-07-25T23:31:58.668Z,18.60
2022-07-25T23:34:25.549Z,18.60
2022-07-25T23:36:52.191Z,18.60
2022-07-25T23:39:18.787Z,18.50
2022-07-25T23:41:45.612Z,18.50
2022-07-25T23:44:12.335Z,18.50
2022-07-25T23:46:39.422Z,18.40
2022-07-25T23:49:07.199Z,18.30
2022-07-25T23:51:34.161Z,18.30
2022-07-25T23:54:00.938Z,18.30
2022-07-25T23:56:27.697Z,18.20
2022-07-25T23:58:54.422Z,18.20
